Weather at Lopez Ranch Airport

Public forecast

Using degrees Fahrenheit for public forecast. Weather courtesy of forecast.io.

Closest aviation weather report (METAR) to Lopez Ranch Airport

Closest report is Kimble County Airport, 20.6 nm (38.2 km) SE. Retrieved 2022/01/17 04:51 UTC (27 minutes ago):

KJCT 170451Z AUTO 26003KT 10SM CLR 02/M10 A3009 RMK AO2 SLP180 T00171100

Closest aviation forecast (TAF) to Lopez Ranch Airport

Closest forecast is Kimble County Airport, 20.6 nm (38.2 km) SE. Retrieved 2022-01-17 00:34 UTC (5 hours ago):

TAF KJCT 162332Z 1700/1724 25006KT P6SM SKC FM170030 VRB03KT P6SM SKC FM171745 18006KT P6SM SKC